createdAt,value
2023-03-15T00:00:27.409Z,19.98
2023-03-15T00:03:18.261Z,17.25
2023-03-15T00:06:08.376Z,12.73
2023-03-15T00:08:57.720Z,14.15
2023-03-15T00:11:47.429Z,17.48
2023-03-15T00:14:38.175Z,13.02
2023-03-15T00:17:27.605Z,19.30
2023-03-15T00:20:19.493Z,15.70
2023-03-15T00:23:09.635Z,18.25
2023-03-15T00:25:59.141Z,12.70
2023-03-15T00:28:48.396Z,15.40
2023-03-15T00:31:37.563Z,15.43
2023-03-15T00:34:27.122Z,14.73
2023-03-15T00:37:19.754Z,15.65
2023-03-15T00:40:12.316Z,13.02
2023-03-15T00:43:01.480Z,14.20
2023-03-15T00:45:51.412Z,13.43
2023-03-15T00:48:41.213Z,16.35
2023-03-15T00:51:32.022Z,14.50
2023-03-15T00:54:23.890Z,16.58
2023-03-15T00:57:13.543Z,13.25
2023-03-15T01:00:09.406Z,13.60
2023-03-15T01:02:59.035Z,17.83
2023-03-15T01:05:48.440Z,12.95
2023-03-15T01:08:38.076Z,15.40
2023-03-15T01:11:30.084Z,15.70
2023-03-15T01:14:20.453Z,16.35
2023-03-15T01:17:09.942Z,17.02
2023-03-15T01:20:00.040Z,19.45
2023-03-15T01:22:49.679Z,20.67
2023-03-15T01:25:38.872Z,16.30
2023-03-15T01:28:29.805Z,16.98
2023-03-15T01:31:22.663Z,18.55
2023-03-15T01:34:12.317Z,24.55
2023-03-15T01:37:02.935Z,21.55
2023-03-15T01:40:01.729Z,21.63
2023-03-15T01:43:15.869Z,20.98
2023-03-15T01:46:34.876Z,15.82
2023-03-15T01:49:35.363Z,16.38
2023-03-15T01:52:31.552Z,20.55
2023-03-15T01:55:24.225Z,18.73
2023-03-15T01:58:28.673Z,16.58
2023-03-15T02:01:21.663Z,16.17
2023-03-15T02:04:15.581Z,19.48
2023-03-15T02:07:09.733Z,16.15
2023-03-15T02:10:05.582Z,14.30
2023-03-15T02:12:59.549Z,13.75
2023-03-15T02:15:49.714Z,17.67
2023-03-15T02:18:48.233Z,10.48
2023-03-15T02:21:51.718Z,12.05
2023-03-15T02:24:49.161Z,15.07
2023-03-15T02:27:42.158Z,18.02
2023-03-15T02:30:31.572Z,15.95
2023-03-15T02:33:25.309Z,12.48
2023-03-15T02:36:21.770Z,15.60
2023-03-15T02:39:19.631Z,14.07
2023-03-15T02:42:09.841Z,11.95
2023-03-15T02:45:00.678Z,14.35
2023-03-15T02:47:50.872Z,12.30
2023-03-15T02:50:40.582Z,11.38
2023-03-15T02:53:31.727Z,12.68
2023-03-15T02:56:20.924Z,16.50
2023-03-15T02:59:10.271Z,15.13
2023-03-15T03:02:01.411Z,14.45
2023-03-15T03:04:52.748Z,11.48
2023-03-15T03:07:43.120Z,17.13
2023-03-15T03:10:32.635Z,14.55
2023-03-15T03:13:23.512Z,17.70
2023-03-15T03:16:13.512Z,11.65
2023-03-15T03:19:06.130Z,15.68
2023-03-15T03:21:57.591Z,16.77
2023-03-15T03:24:47.280Z,19.38
2023-03-15T03:27:38.996Z,20.63
2023-03-15T03:30:31.259Z,16.73
2023-03-15T03:33:21.336Z,19.65
2023-03-15T03:36:13.224Z,15.32
2023-03-15T03:39:02.912Z,16.95
2023-03-15T03:41:52.431Z,16.30
2023-03-15T03:44:41.886Z,16.48
2023-03-15T03:47:31.360Z,16.38
2023-03-15T03:50:21.208Z,14.48
2023-03-15T03:53:12.225Z,17.88
2023-03-15T03:56:04.218Z,16.70
2023-03-15T03:58:53.400Z,16.42
2023-03-15T04:01:48.406Z,18.10
2023-03-15T04:04:41.351Z,14.43
2023-03-15T04:07:36.152Z,16.27
2023-03-15T04:10:27.903Z,13.82
2023-03-15T04:13:17.660Z,15.57
2023-03-15T04:16:08.485Z,14.30
2023-03-15T04:19:14.095Z,12.38
2023-03-15T04:22:06.801Z,13.70
2023-03-15T04:25:12.823Z,12.88
2023-03-15T04:28:14.536Z,12.07
2023-03-15T04:31:27.363Z,11.05
2023-03-15T04:34:38.892Z,14.35
2023-03-15T04:37:48.306Z,10.60
2023-03-15T04:40:52.061Z,13.68
2023-03-15T04:43:49.579Z,10.13
2023-03-15T04:46:58.266Z,11.15
2023-03-15T04:50:04.599Z,12.40
2023-03-15T04:53:07.988Z,10.93
2023-03-15T04:56:17.651Z,12.35
2023-03-15T04:59:39.204Z,9.88
2023-03-15T05:02:52.236Z,12.50
2023-03-15T05:06:08.169Z,9.73
2023-03-15T05:09:19.317Z,9.98
2023-03-15T05:12:47.364Z,10.35
2023-03-15T05:15:47.271Z,9.48
2023-03-15T05:18:57.318Z,10.48
2023-03-15T05:22:09.725Z,7.50
2023-03-15T05:25:25.583Z,10.45
2023-03-15T05:28:34.925Z,10.15
2023-03-15T05:31:37.216Z,9.90
2023-03-15T05:34:29.801Z,10.93
2023-03-15T05:37:24.974Z,9.90
2023-03-15T05:40:45.105Z,9.50
2023-03-15T05:43:53.042Z,9.95
2023-03-15T05:47:03.921Z,7.60
2023-03-15T05:50:23.297Z,8.35
2023-03-15T05:53:19.712Z,8.68
2023-03-15T05:56:26.909Z,11.20
2023-03-15T05:59:36.010Z,10.20
2023-03-15T06:02:45.648Z,7.30
2023-03-15T06:05:53.538Z,8.52
2023-03-15T06:08:52.333Z,14.13
2023-03-15T06:11:42.050Z,4.55
2023-03-15T06:14:35.065Z,5.55
2023-03-15T06:17:29.497Z,6.50
2023-03-15T06:20:20.652Z,6.63
2023-03-15T06:23:10.607Z,5.75
2023-03-15T06:26:06.994Z,6.47
2023-03-15T06:28:57.219Z,7.88
2023-03-15T06:31:48.187Z,9.88
2023-03-15T06:34:38.347Z,9.93
2023-03-15T06:37:35.331Z,12.02
2023-03-15T06:40:25.818Z,13.70
2023-03-15T06:43:19.628Z,10.80
2023-03-15T06:46:09.297Z,9.38
2023-03-15T06:48:58.742Z,20.48
2023-03-15T06:51:48.939Z,19.48
2023-03-15T06:54:39.848Z,20.77
2023-03-15T06:57:29.176Z,17.00
2023-03-15T07:00:19.695Z,13.32
2023-03-15T07:03:09.139Z,6.28
2023-03-15T07:05:58.464Z,5.85
2023-03-15T07:08:47.870Z,6.03
2023-03-15T07:11:38.529Z,7.32
2023-03-15T07:14:27.705Z,7.32
2023-03-15T07:17:17.140Z,6.35
2023-03-15T07:20:08.310Z,6.32
2023-03-15T07:22:57.629Z,9.43
2023-03-15T07:25:55.081Z,11.73
2023-03-15T07:28:46.757Z,5.95
2023-03-15T07:31:36.126Z,9.27
2023-03-15T07:34:25.388Z,9.77
2023-03-15T07:37:14.688Z,9.02
2023-03-15T07:40:09.748Z,6.72
2023-03-15T07:42:59.068Z,7.32
2023-03-15T07:45:49.781Z,4.70
2023-03-15T07:48:38.952Z,6.82
2023-03-15T07:51:28.184Z,7.82
2023-03-15T07:54:17.485Z,5.97
2023-03-15T07:57:07.376Z,4.90
2023-03-15T07:59:56.528Z,7.90
2023-03-15T08:02:47.159Z,5.10
2023-03-15T08:05:36.967Z,11.80
2023-03-15T08:08:26.364Z,9.80
2023-03-15T08:11:15.975Z,6.93
2023-03-15T08:14:05.842Z,8.77
2023-03-15T08:16:55.267Z,8.75
2023-03-15T08:19:46.342Z,10.38
2023-03-15T08:22:38.122Z,4.25
2023-03-15T08:25:27.860Z,7.93
2023-03-15T08:28:17.197Z,6.15
2023-03-15T08:31:09.044Z,5.88
2023-03-15T08:33:59.013Z,3.72
2023-03-15T08:36:50.290Z,5.72
2023-03-15T08:39:39.755Z,5.95
2023-03-15T08:42:29.387Z,4.43
2023-03-15T08:45:18.804Z,8.43
2023-03-15T08:48:08.345Z,2.92
2023-03-15T08:51:03.333Z,4.07
2023-03-15T08:53:54.494Z,9.88
2023-03-15T08:56:44.630Z,9.80
2023-03-15T08:59:33.945Z,7.53
2023-03-15T09:02:23.696Z,4.75
2023-03-15T09:05:13.006Z,4.05
2023-03-15T09:08:02.358Z,4.22
2023-03-15T09:10:56.801Z,4.40
2023-03-15T09:13:46.090Z,3.95
2023-03-15T09:16:35.525Z,5.07
2023-03-15T09:19:24.884Z,4.72
2023-03-15T09:22:16.505Z,4.50
2023-03-15T09:25:07.256Z,5.97
2023-03-15T09:27:58.280Z,5.15
2023-03-15T09:30:47.536Z,6.60
2023-03-15T09:33:37.210Z,7.18
2023-03-15T09:36:26.541Z,11.88
2023-03-15T09:39:15.721Z,6.00
2023-03-15T09:42:10.543Z,5.20
2023-03-15T09:45:09.137Z,10.27
2023-03-15T09:48:09.473Z,9.05
2023-03-15T09:51:05.843Z,9.55
2023-03-15T09:54:02.148Z,6.00
2023-03-15T09:56:58.285Z,37.88
2023-03-15T09:59:52.305Z,7.22
2023-03-15T10:02:50.065Z,5.15
2023-03-15T10:05:43.617Z,6.03
2023-03-15T10:08:34.438Z,6.30
2023-03-15T10:11:35.519Z,7.25
2023-03-15T10:14:40.961Z,5.68
2023-03-15T10:17:40.894Z,6.55
2023-03-15T10:20:35.866Z,7.22
2023-03-15T10:23:37.243Z,8.07
2023-03-15T10:26:34.268Z,6.15
2023-03-15T10:29:28.349Z,6.45
2023-03-15T10:32:20.235Z,5.57
2023-03-15T10:35:17.236Z,4.65
2023-03-15T10:38:16.646Z,5.38
2023-03-15T10:41:08.838Z,4.88
2023-03-15T10:44:03.222Z,7.85
2023-03-15T10:47:21.595Z,5.47
2023-03-15T10:50:19.157Z,8.43
2023-03-15T10:53:20.878Z,6.25
2023-03-15T10:56:23.242Z,5.53
2023-03-15T10:59:20.388Z,10.15
2023-03-15T11:02:22.759Z,6.45
2023-03-15T11:05:20.228Z,8.32
2023-03-15T11:08:16.336Z,5.00
2023-03-15T11:11:06.425Z,6.30
2023-03-15T11:14:02.139Z,6.43
2023-03-15T11:16:55.174Z,5.43
2023-03-15T11:19:55.376Z,5.45
2023-03-15T11:22:44.738Z,5.70
2023-03-15T11:25:35.430Z,7.45
2023-03-15T11:28:29.353Z,5.40
2023-03-15T11:31:18.643Z,5.18
2023-03-15T11:34:13.762Z,5.68
2023-03-15T11:37:13.097Z,8.57
2023-03-15T11:40:12.901Z,7.47
2023-03-15T11:43:10.265Z,11.65
2023-03-15T11:46:04.786Z,5.57
2023-03-15T11:49:12.404Z,5.47
2023-03-15T11:52:01.920Z,5.18
2023-03-15T11:54:51.970Z,6.03
2023-03-15T11:57:46.827Z,10.88
2023-03-15T12:00:57.560Z,6.07
2023-03-15T12:03:46.930Z,7.40
2023-03-15T12:06:39.434Z,6.82
2023-03-15T12:09:52.434Z,11.30
2023-03-15T12:12:47.861Z,19.08
2023-03-15T12:15:47.644Z,4.88
2023-03-15T12:18:46.945Z,3.92
2023-03-15T12:21:41.470Z,6.65
2023-03-15T12:24:36.406Z,4.15
2023-03-15T12:27:29.531Z,4.60
2023-03-15T12:30:25.101Z,8.77
2023-03-15T12:33:19.659Z,4.10
2023-03-15T12:36:18.453Z,13.35
2023-03-15T12:39:38.348Z,4.18
2023-03-15T12:43:13.508Z,4.68
2023-03-15T12:46:02.789Z,4.43
2023-03-15T12:49:08.231Z,3.63
2023-03-15T12:52:01.257Z,6.72
2023-03-15T12:54:56.690Z,5.30
2023-03-15T12:57:54.152Z,7.70
2023-03-15T13:00:45.602Z,4.55
2023-03-15T13:03:37.500Z,4.07
2023-03-15T13:07:05.447Z,4.63
2023-03-15T13:10:22.992Z,6.32
2023-03-15T13:13:35.188Z,16.77
2023-03-15T13:16:35.701Z,6.13
2023-03-15T13:19:28.968Z,6.85
2023-03-15T13:22:33.977Z,3.72
2023-03-15T13:25:33.672Z,8.43
2023-03-15T13:28:27.294Z,5.60
2023-03-15T13:31:24.399Z,6.20
2023-03-15T13:37:48.559Z,4.53
2023-03-15T13:40:47.719Z,3.92
2023-03-15T13:43:40.027Z,3.30
2023-03-15T13:46:33.290Z,4.50
2023-03-15T13:49:23.304Z,19.40
2023-03-15T13:52:14.931Z,3.95
2023-03-15T13:55:07.074Z,17.55
2023-03-15T13:58:00.989Z,3.90
2023-03-15T14:00:50.802Z,4.93
2023-03-15T14:03:43.400Z,3.90
2023-03-15T14:06:32.780Z,4.57
2023-03-15T14:09:28.706Z,3.65
2023-03-15T14:12:23.962Z,4.03
2023-03-15T14:15:19.475Z,5.38
2023-03-15T14:18:20.600Z,6.95
2023-03-15T14:21:16.931Z,5.90
2023-03-15T14:24:08.709Z,3.13
2023-03-15T14:27:01.785Z,2.97
2023-03-15T14:29:55.732Z,7.03
2023-03-15T14:32:54.481Z,6.85
2023-03-15T14:35:46.242Z,6.90
2023-03-15T14:38:38.304Z,5.38
2023-03-15T14:41:34.032Z,6.32
2023-03-15T14:44:23.382Z,8.93
2023-03-15T14:47:18.141Z,6.88
2023-03-15T14:50:14.941Z,7.43
2023-03-15T14:53:07.244Z,6.07
2023-03-15T14:55:56.495Z,6.45
2023-03-15T14:58:45.696Z,5.03
2023-03-15T15:01:36.603Z,5.10
2023-03-15T15:04:31.095Z,6.65
2023-03-15T15:07:20.818Z,5.93
2023-03-15T15:10:12.060Z,3.78
2023-03-15T15:13:06.329Z,4.93
2023-03-15T15:15:58.091Z,2.90
2023-03-15T15:18:47.646Z,4.38
2023-03-15T15:21:39.200Z,6.97
2023-03-15T15:24:28.849Z,5.15
2023-03-15T15:27:18.193Z,7.07
2023-03-15T15:30:16.197Z,7.20
2023-03-15T15:33:06.003Z,13.02
2023-03-15T15:35:58.905Z,6.57
2023-03-15T15:38:49.923Z,10.85
2023-03-15T15:41:39.246Z,10.43
2023-03-15T15:44:28.524Z,8.65
2023-03-15T15:47:17.784Z,6.72
2023-03-15T15:50:08.129Z,5.85
2023-03-15T15:52:57.384Z,10.70
2023-03-15T15:55:48.185Z,9.52
2023-03-15T15:58:37.497Z,11.48
2023-03-15T16:01:27.246Z,10.18
2023-03-15T16:04:17.216Z,8.65
2023-03-15T16:07:08.020Z,8.52
2023-03-15T16:09:59.501Z,7.40
2023-03-15T16:12:52.163Z,11.50
2023-03-15T16:15:41.430Z,8.13
2023-03-15T16:18:31.315Z,7.10
2023-03-15T16:21:33.026Z,4.35
2023-03-15T16:24:27.041Z,5.20
2023-03-15T16:27:19.314Z,12.80
2023-03-15T16:30:22.101Z,6.37
2023-03-15T16:33:16.443Z,20.25
2023-03-15T16:36:06.380Z,11.43
2023-03-15T16:38:57.154Z,6.30
2023-03-15T16:41:47.202Z,6.63
2023-03-15T16:44:36.968Z,6.10
2023-03-15T16:47:27.651Z,6.75
2023-03-15T16:50:17.774Z,9.30
2023-03-15T16:53:11.217Z,8.88
2023-03-15T16:56:00.654Z,13.07
2023-03-15T16:58:54.119Z,11.55
2023-03-15T17:01:43.472Z,8.13
2023-03-15T17:04:37.012Z,10.20
2023-03-15T17:07:32.700Z,17.00
2023-03-15T17:10:25.761Z,8.80
2023-03-15T17:13:18.511Z,7.88
2023-03-15T17:16:11.326Z,9.38
2023-03-15T17:19:01.606Z,11.10
2023-03-15T17:21:53.376Z,15.55
2023-03-15T17:24:42.694Z,14.90
2023-03-15T17:27:37.098Z,13.18
2023-03-15T17:30:28.159Z,17.75
2023-03-15T17:33:17.558Z,16.85
2023-03-15T17:36:09.904Z,18.27
2023-03-15T17:39:00.584Z,17.67
2023-03-15T17:41:50.375Z,21.65
2023-03-15T17:44:39.753Z,26.17
2023-03-15T17:47:29.297Z,24.95
2023-03-15T17:50:19.546Z,21.13
2023-03-15T17:53:16.961Z,22.05
2023-03-15T17:56:09.572Z,19.75
2023-03-15T17:58:58.981Z,18.90
2023-03-15T18:01:48.975Z,20.83
2023-03-15T18:04:38.233Z,21.90
2023-03-15T18:07:29.688Z,22.02
2023-03-15T18:10:23.901Z,25.65
2023-03-15T18:13:18.344Z,29.02
2023-03-15T18:16:08.223Z,27.77
2023-03-15T18:18:57.649Z,27.33
2023-03-15T18:21:46.864Z,28.77
2023-03-15T18:24:36.068Z,23.80
2023-03-15T18:27:25.342Z,22.02
2023-03-15T18:30:18.988Z,24.65
2023-03-15T18:33:08.345Z,23.08
2023-03-15T18:35:57.707Z,26.08
2023-03-15T18:38:47.450Z,25.25
2023-03-15T18:41:36.892Z,23.65
2023-03-15T18:44:26.161Z,23.30
2023-03-15T18:47:16.860Z,23.73
2023-03-15T18:50:10.592Z,20.98
2023-03-15T18:53:06.175Z,22.27
2023-03-15T18:55:55.673Z,19.00
2023-03-15T18:58:45.177Z,16.60
2023-03-15T19:01:34.483Z,19.80
2023-03-15T19:04:25.430Z,17.75
2023-03-15T19:07:14.770Z,17.88
2023-03-15T19:10:04.333Z,19.40
2023-03-15T19:12:54.456Z,21.20
2023-03-15T19:15:44.038Z,23.42
2023-03-15T19:18:33.987Z,25.52
2023-03-15T19:21:26.510Z,23.85
2023-03-15T19:24:15.798Z,22.65
2023-03-15T19:27:05.168Z,24.48
2023-03-15T19:29:54.490Z,24.63
2023-03-15T19:32:44.003Z,28.13
2023-03-15T19:35:33.784Z,35.83
2023-03-15T19:38:24.600Z,38.63
2023-03-15T19:41:13.752Z,26.42
2023-03-15T19:44:03.168Z,25.05
2023-03-15T19:46:52.447Z,31.63
2023-03-15T19:49:41.681Z,24.30
2023-03-15T19:52:33.249Z,25.92
2023-03-15T19:55:27.941Z,28.50
2023-03-15T19:58:19.638Z,18.35
2023-03-15T20:01:09.207Z,27.10
2023-03-15T20:03:58.507Z,20.05
2023-03-15T20:06:47.762Z,14.98
2023-03-15T20:09:38.963Z,14.30
2023-03-15T20:12:29.610Z,16.15
2023-03-15T20:15:21.082Z,23.17
2023-03-15T20:18:13.109Z,13.77
2023-03-15T20:21:02.377Z,21.38
2023-03-15T20:23:52.206Z,23.80
2023-03-15T20:26:41.526Z,24.40
2023-03-15T20:29:33.034Z,32.45
2023-03-15T20:32:22.325Z,31.02
2023-03-15T20:35:12.416Z,8.75
2023-03-15T20:38:06.698Z,7.40
2023-03-15T20:40:56.969Z,7.97
2023-03-15T20:43:46.646Z,10.15
2023-03-15T20:46:38.193Z,8.93
2023-03-15T20:49:29.361Z,7.85
2023-03-15T20:52:20.088Z,5.97
2023-03-15T20:55:10.660Z,7.93
2023-03-15T20:58:00.339Z,7.03
2023-03-15T21:00:50.870Z,7.68
2023-03-15T21:03:44.118Z,6.18
2023-03-15T21:09:23.216Z,9.38
2023-03-15T21:12:14.700Z,8.18
2023-03-15T21:15:06.069Z,5.78
2023-03-15T21:17:55.539Z,4.45
2023-03-15T21:20:46.562Z,6.75
2023-03-15T21:23:36.327Z,8.57
2023-03-15T21:26:25.533Z,4.43
2023-03-15T21:29:14.744Z,2.85
2023-03-15T21:32:05.625Z,3.70
2023-03-15T21:34:54.816Z,5.43
2023-03-15T21:37:45.723Z,7.35
2023-03-15T21:40:35.438Z,7.68
2023-03-15T21:43:24.774Z,4.65
2023-03-15T21:46:14.376Z,4.63
2023-03-15T21:49:04.160Z,8.07
2023-03-15T21:51:53.405Z,7.22
2023-03-15T21:54:45.033Z,6.10
2023-03-15T21:57:34.941Z,4.30
2023-03-15T22:00:24.869Z,6.68
2023-03-15T22:03:14.384Z,2.58
2023-03-15T22:06:04.320Z,2.63
2023-03-15T22:08:53.729Z,14.77
2023-03-15T22:11:44.412Z,2.30
2023-03-15T22:14:33.693Z,4.00
2023-03-15T22:17:23.003Z,5.28
2023-03-15T22:20:16.930Z,9.32
2023-03-15T22:23:06.865Z,25.05
2023-03-15T22:25:57.289Z,18.33
2023-03-15T22:28:48.103Z,5.88
2023-03-15T22:31:38.274Z,3.95
2023-03-15T22:34:27.676Z,4.60
2023-03-15T22:37:17.000Z,6.38
2023-03-15T22:40:07.544Z,3.80
2023-03-15T22:42:58.429Z,7.68
2023-03-15T22:45:49.001Z,9.48
2023-03-15T22:48:38.425Z,6.88
2023-03-15T22:51:27.849Z,6.43
2023-03-15T22:54:17.260Z,5.72
2023-03-15T22:57:06.914Z,4.60
2023-03-15T22:59:56.424Z,5.05
2023-03-15T23:02:47.270Z,2.97
2023-03-15T23:05:36.709Z,3.45
2023-03-15T23:08:26.886Z,2.75
2023-03-15T23:11:16.180Z,2.75
2023-03-15T23:14:05.622Z,2.40
2023-03-15T23:16:55.037Z,2.50
2023-03-15T23:19:46.266Z,3.10
2023-03-15T23:22:36.435Z,3.30
2023-03-15T23:25:30.014Z,2.58
2023-03-15T23:28:21.890Z,2.60
2023-03-15T23:31:11.727Z,2.25
2023-03-15T23:34:01.032Z,2.20
2023-03-15T23:36:51.907Z,2.67
2023-03-15T23:39:41.691Z,1.90
2023-03-15T23:42:32.724Z,2.25
2023-03-15T23:45:21.995Z,1.63
2023-03-15T23:48:12.575Z,2.30
2023-03-15T23:51:04.030Z,2.03
2023-03-15T23:53:54.700Z,1.90
2023-03-15T23:56:43.891Z,1.63
2023-03-15T23:59:33.067Z,2.50
